createdAt,value
2017-04-13T00:01:04.968Z,22.8
2017-04-13T00:02:13.050Z,22.9
2017-04-13T00:03:21.143Z,22.9
2017-04-13T00:04:29.233Z,22.9
2017-04-13T00:05:37.384Z,22.8
2017-04-13T00:06:45.407Z,22.8
2017-04-13T00:07:53.500Z,22.8
2017-04-13T00:09:01.586Z,22.9
2017-04-13T00:10:09.671Z,22.9
2017-04-13T00:11:17.758Z,22.9
2017-04-13T00:12:25.845Z,22.8
2017-04-13T00:13:33.932Z,22.8
2017-04-13T00:14:42.026Z,22.9
2017-04-13T00:15:50.114Z,22.9
2017-04-13T00:16:58.203Z,22.9
2017-04-13T00:18:06.298Z,22.9
2017-04-13T00:19:14.385Z,22.9
2017-04-13T00:20:22.479Z,22.9
2017-04-13T00:21:30.555Z,22.9
2017-04-13T00:22:38.655Z,22.9
2017-04-13T00:23:46.744Z,22.8
2017-04-13T00:24:54.875Z,22.9
2017-04-13T00:26:02.918Z,22.8
2017-04-13T00:27:11.009Z,22.9
2017-04-13T00:28:19.097Z,22.9
2017-04-13T00:29:27.187Z,22.9
2017-04-13T00:30:35.283Z,22.9
2017-04-13T00:31:43.372Z,22.8
2017-04-13T00:32:51.453Z,22.9
2017-04-13T00:33:59.548Z,22.9
2017-04-13T00:35:07.637Z,22.8
2017-04-13T00:36:15.762Z,22.8
2017-04-13T00:37:23.809Z,22.9
2017-04-13T00:38:31.900Z,22.9
2017-04-13T00:39:39.990Z,22.8
2017-04-13T00:40:48.073Z,22.9
2017-04-13T00:41:56.163Z,22.9
2017-04-13T00:43:04.252Z,22.9
2017-04-13T00:44:12.342Z,22.9
2017-04-13T00:45:20.423Z,22.8
2017-04-13T00:46:28.514Z,22.8
2017-04-13T00:47:36.604Z,22.9
2017-04-13T00:48:44.685Z,22.9
2017-04-13T00:49:52.775Z,22.9
2017-04-13T00:51:00.865Z,22.9
2017-04-13T00:52:08.947Z,22.9
2017-04-13T00:53:17.034Z,22.9
2017-04-13T00:54:25.130Z,22.9
2017-04-13T00:55:33.210Z,22.9
2017-04-13T00:56:41.295Z,22.9
2017-04-13T00:57:49.390Z,22.9
2017-04-13T00:58:57.473Z,22.9
2017-04-13T01:00:05.559Z,22.9
2017-04-13T01:01:13.644Z,22.9
2017-04-13T01:02:21.735Z,22.9
2017-04-13T01:03:29.820Z,22.9
2017-04-13T01:04:37.907Z,22.8
2017-04-13T01:05:45.999Z,22.8
2017-04-13T01:06:54.087Z,22.9
2017-04-13T01:08:02.172Z,22.9
2017-04-13T01:09:10.259Z,22.8
2017-04-13T01:10:18.345Z,22.8
2017-04-13T01:11:26.440Z,22.8
2017-04-13T01:12:34.533Z,22.8
2017-04-13T01:13:42.625Z,22.9
2017-04-13T01:14:50.719Z,22.7
2017-04-13T01:15:58.807Z,22.8
2017-04-13T01:17:06.896Z,22.8
2017-04-13T01:18:14.986Z,22.8
2017-04-13T01:19:23.080Z,22.8
2017-04-13T01:20:31.163Z,22.8
2017-04-13T01:21:39.253Z,22.8
2017-04-13T01:22:47.342Z,22.8
2017-04-13T01:23:55.434Z,22.8
2017-04-13T01:25:03.519Z,22.7
2017-04-13T01:26:11.607Z,22.8
2017-04-13T01:27:19.696Z,22.7
2017-04-13T01:28:27.786Z,22.8
2017-04-13T01:29:35.881Z,22.7
2017-04-13T01:30:43.967Z,22.8
2017-04-13T01:31:52.050Z,22.8
2017-04-13T01:33:00.146Z,22.7
2017-04-13T01:34:08.232Z,22.8
2017-04-13T01:35:16.322Z,22.7
2017-04-13T01:36:24.407Z,22.9
2017-04-13T01:37:32.498Z,22.8
2017-04-13T01:38:40.588Z,22.8
2017-04-13T01:39:48.681Z,22.8
2017-04-13T01:40:56.765Z,22.8
2017-04-13T01:42:04.852Z,22.8
2017-04-13T01:43:12.936Z,22.8
2017-04-13T01:44:21.023Z,22.7
2017-04-13T01:45:29.114Z,22.7
2017-04-13T01:46:37.203Z,22.8
2017-04-13T01:47:45.290Z,22.8
2017-04-13T01:48:53.373Z,22.8
2017-04-13T01:50:01.509Z,22.7
2017-04-13T01:51:09.548Z,22.7
2017-04-13T01:52:17.639Z,22.8
2017-04-13T01:53:25.729Z,22.7
2017-04-13T01:54:33.819Z,22.6
2017-04-13T01:55:41.902Z,22.7
2017-04-13T01:56:49.995Z,22.6
2017-04-13T01:57:58.089Z,22.6
2017-04-13T01:59:06.176Z,22.6
2017-04-13T02:00:14.357Z,22.7
2017-04-13T02:01:22.348Z,22.6
2017-04-13T02:02:30.441Z,22.6
2017-04-13T02:03:38.535Z,22.6
2017-04-13T02:04:46.622Z,22.6
2017-04-13T02:05:54.711Z,22.7
2017-04-13T02:07:02.790Z,22.7
2017-04-13T02:08:10.879Z,22.6
2017-04-13T02:09:18.967Z,22.7
2017-04-13T02:10:27.059Z,22.6
2017-04-13T02:11:35.147Z,22.6
2017-04-13T02:12:43.235Z,22.6
2017-04-13T02:13:51.321Z,22.6
2017-04-13T02:14:59.404Z,22.6
2017-04-13T02:16:07.494Z,22.6
2017-04-13T02:17:15.654Z,22.6
2017-04-13T02:18:23.679Z,22.6
2017-04-13T02:19:31.777Z,22.5
2017-04-13T02:20:39.866Z,22.6
2017-04-13T02:21:47.946Z,22.5
2017-04-13T02:22:56.030Z,22.6
2017-04-13T02:24:04.114Z,22.6
2017-04-13T02:25:12.203Z,22.6
2017-04-13T02:26:20.295Z,22.6
2017-04-13T02:27:28.373Z,22.5
2017-04-13T02:28:36.467Z,22.5
2017-04-13T02:29:44.556Z,22.5
2017-04-13T02:30:52.638Z,22.5
2017-04-13T02:32:00.726Z,22.5
2017-04-13T02:33:08.816Z,22.6
2017-04-13T02:34:16.929Z,22.6
2017-04-13T02:35:24.990Z,22.5
2017-04-13T02:36:33.075Z,22.5
2017-04-13T02:37:41.167Z,22.5
2017-04-13T02:38:49.274Z,22.5
2017-04-13T02:39:57.341Z,22.4
2017-04-13T02:41:05.430Z,22.4
2017-04-13T02:42:13.517Z,22.5
2017-04-13T02:43:21.600Z,22.4
2017-04-13T02:44:29.691Z,22.5
2017-04-13T02:45:37.778Z,22.4
2017-04-13T02:46:45.865Z,22.4
2017-04-13T02:47:53.951Z,22.3
2017-04-13T02:49:02.040Z,22.4
2017-04-13T02:50:10.132Z,22.4
2017-04-13T02:51:18.218Z,22.4
2017-04-13T02:52:26.306Z,22.4
2017-04-13T02:53:34.394Z,22.4
2017-04-13T02:54:42.477Z,22.4
2017-04-13T02:55:50.569Z,22.3
2017-04-13T02:56:58.660Z,22.3
2017-04-13T02:58:06.748Z,22.3
2017-04-13T02:59:14.832Z,22.2
2017-04-13T03:00:22.923Z,22.3
2017-04-13T03:01:31.009Z,22.2
2017-04-13T03:02:39.091Z,22.2
2017-04-13T03:03:47.179Z,22.2
2017-04-13T03:04:55.265Z,22.2
2017-04-13T03:06:03.349Z,22.3
2017-04-13T03:07:11.440Z,22.3
2017-04-13T03:08:19.531Z,22.2
2017-04-13T03:09:27.616Z,22.3
2017-04-13T03:10:35.698Z,22.3
2017-04-13T03:11:43.788Z,22.2
2017-04-13T03:12:51.891Z,22.3
2017-04-13T03:13:59.970Z,22.2
2017-04-13T03:15:08.060Z,22.2
2017-04-13T03:16:16.145Z,22.2
2017-04-13T03:17:24.232Z,22.1
2017-04-13T03:18:32.315Z,22.2
2017-04-13T03:19:40.407Z,22.2
2017-04-13T03:20:48.497Z,22.2
2017-04-13T03:21:56.587Z,22.2
2017-04-13T03:23:04.671Z,22.2
2017-04-13T03:24:12.761Z,22.1
2017-04-13T03:25:20.847Z,22.0
2017-04-13T03:26:28.934Z,22.1
2017-04-13T03:27:37.031Z,22.1
2017-04-13T03:28:45.117Z,22.2
2017-04-13T03:29:53.198Z,22.1
2017-04-13T03:31:01.285Z,22.1
2017-04-13T03:32:09.375Z,22.1
2017-04-13T03:33:17.463Z,22.1
2017-04-13T03:34:25.547Z,22.0
2017-04-13T03:35:33.635Z,22.1
2017-04-13T03:36:41.727Z,22.0
2017-04-13T03:37:49.817Z,22.0
2017-04-13T03:38:57.907Z,22.1
2017-04-13T03:40:05.999Z,22.1
2017-04-13T03:41:14.082Z,22.0
2017-04-13T03:42:22.167Z,21.9
2017-04-13T03:43:30.258Z,22.0
2017-04-13T03:44:38.359Z,22.0
2017-04-13T03:45:46.441Z,22.0
2017-04-13T03:46:54.524Z,21.9
2017-04-13T03:48:02.607Z,22.0
2017-04-13T03:49:10.696Z,21.9
2017-04-13T03:50:18.777Z,21.9
2017-04-13T03:51:26.873Z,21.9
2017-04-13T03:52:34.958Z,21.9
2017-04-13T03:53:43.046Z,21.9
2017-04-13T03:54:51.141Z,21.9
2017-04-13T03:55:59.227Z,21.9
2017-04-13T03:57:07.320Z,21.9
2017-04-13T03:58:15.400Z,21.9
2017-04-13T03:59:23.492Z,21.9
2017-04-13T04:00:31.582Z,21.9
2017-04-13T04:01:39.669Z,21.8
2017-04-13T04:02:47.767Z,21.8
2017-04-13T04:03:55.852Z,21.8
2017-04-13T04:05:03.933Z,21.8
2017-04-13T04:06:12.021Z,21.8
2017-04-13T04:07:20.110Z,21.8
2017-04-13T04:08:28.195Z,21.8
2017-04-13T04:09:36.289Z,21.7
2017-04-13T04:10:44.376Z,21.8
2017-04-13T04:11:52.463Z,21.8
2017-04-13T04:13:00.549Z,21.7
2017-04-13T04:14:08.634Z,21.7
2017-04-13T04:15:16.722Z,21.8
2017-04-13T04:16:24.818Z,21.7
2017-04-13T04:17:32.901Z,21.7
2017-04-13T04:18:40.992Z,21.7
2017-04-13T04:19:49.078Z,21.7
2017-04-13T04:20:57.163Z,21.6
2017-04-13T04:22:05.245Z,21.7
2017-04-13T04:23:13.336Z,21.6
2017-04-13T04:24:21.428Z,21.7
2017-04-13T04:25:29.507Z,21.7
2017-04-13T04:26:37.597Z,21.6
2017-04-13T04:27:45.683Z,21.6
2017-04-13T04:28:53.763Z,21.6
2017-04-13T04:30:01.851Z,21.7
2017-04-13T04:31:09.941Z,21.7
2017-04-13T04:32:18.028Z,21.7
2017-04-13T04:33:26.110Z,21.7
2017-04-13T04:34:34.198Z,21.7
2017-04-13T04:35:42.285Z,21.6
2017-04-13T04:36:50.369Z,21.7
2017-04-13T04:37:58.457Z,21.6
2017-04-13T04:39:06.549Z,21.6
2017-04-13T04:40:14.630Z,21.6
2017-04-13T04:41:22.717Z,21.6
2017-04-13T04:42:30.808Z,21.6
2017-04-13T04:43:38.895Z,21.6
2017-04-13T04:44:46.976Z,21.6
2017-04-13T04:45:55.139Z,21.6
2017-04-13T04:47:03.157Z,21.6
2017-04-13T04:48:11.243Z,21.6
2017-04-13T04:49:19.323Z,21.6
2017-04-13T04:50:27.413Z,21.5
2017-04-13T04:51:35.499Z,21.5
2017-04-13T04:52:43.580Z,21.5
2017-04-13T04:53:51.669Z,21.5
2017-04-13T04:54:59.755Z,21.5
2017-04-13T04:56:07.844Z,21.5
2017-04-13T04:57:15.925Z,21.5
2017-04-13T04:58:24.014Z,21.5
2017-04-13T04:59:32.103Z,21.4
2017-04-13T05:00:40.188Z,21.5
2017-04-13T05:01:48.275Z,21.5
2017-04-13T05:02:56.411Z,21.5
2017-04-13T05:04:04.447Z,21.5
2017-04-13T05:05:12.542Z,21.5
2017-04-13T05:06:20.646Z,21.5
2017-04-13T05:07:28.739Z,21.4
2017-04-13T05:08:36.808Z,21.4
2017-04-13T05:09:44.900Z,21.5
2017-04-13T05:10:52.982Z,21.4
2017-04-13T05:12:01.067Z,21.4
2017-04-13T05:13:09.152Z,21.4
2017-04-13T05:14:17.248Z,21.4
2017-04-13T05:15:25.340Z,21.3
2017-04-13T05:16:33.427Z,21.3
2017-04-13T05:17:41.515Z,21.3
2017-04-13T05:18:49.610Z,21.4
2017-04-13T05:19:57.789Z,21.3
2017-04-13T05:21:05.777Z,21.4
2017-04-13T05:22:13.866Z,21.3
2017-04-13T05:23:21.959Z,21.3
2017-04-13T05:24:30.042Z,21.3
2017-04-13T05:25:38.123Z,21.3
2017-04-13T05:26:46.219Z,21.4
2017-04-13T05:27:54.299Z,21.3
2017-04-13T05:29:02.384Z,21.3
2017-04-13T05:30:10.477Z,21.3
2017-04-13T05:31:18.567Z,21.3
2017-04-13T05:32:26.652Z,21.3
2017-04-13T05:33:34.742Z,21.3
2017-04-13T05:34:42.832Z,21.3
2017-04-13T05:35:50.919Z,21.3
2017-04-13T05:36:59.633Z,21.3
2017-04-13T05:38:07.088Z,21.3
2017-04-13T05:39:15.784Z,21.2
2017-04-13T05:40:23.261Z,21.3
2017-04-13T05:41:31.352Z,21.3
2017-04-13T05:42:39.439Z,21.2
2017-04-13T05:43:47.520Z,21.2
2017-04-13T05:44:57.195Z,21.3
2017-04-13T05:46:04.062Z,21.1
2017-04-13T05:47:12.057Z,21.2
2017-04-13T05:48:20.919Z,21.1
2017-04-13T05:49:27.968Z,21.1
2017-04-13T05:50:36.495Z,21.2
2017-04-13T05:51:44.141Z,21.2
2017-04-13T05:52:52.218Z,21.2
2017-04-13T05:54:00.308Z,21.1
2017-04-13T05:55:08.980Z,21.2
2017-04-13T05:56:16.477Z,21.2
2017-04-13T05:57:24.909Z,21.2
2017-04-13T05:58:32.652Z,21.2
2017-04-13T05:59:40.737Z,21.2
2017-04-13T06:00:48.823Z,21.1
2017-04-13T06:01:56.914Z,21.1
2017-04-13T06:03:04.997Z,21.1
2017-04-13T06:04:13.086Z,21.0
2017-04-13T06:05:21.176Z,21.0
2017-04-13T06:06:29.264Z,21.1
2017-04-13T06:07:37.347Z,21.1
2017-04-13T06:08:45.434Z,21.1
2017-04-13T06:09:54.157Z,21.1
2017-04-13T06:11:01.613Z,21.1
2017-04-13T06:12:09.696Z,21.1
2017-04-13T06:13:17.789Z,21.0
2017-04-13T06:14:25.881Z,21.0
2017-04-13T06:15:33.957Z,21.1
2017-04-13T06:16:42.047Z,21.1
2017-04-13T06:17:50.134Z,21.0
2017-04-13T06:18:58.220Z,21.0
2017-04-13T06:20:06.302Z,21.0
2017-04-13T06:21:14.394Z,21.0
2017-04-13T06:22:22.485Z,21.1
2017-04-13T06:23:30.567Z,21.0
2017-04-13T06:24:38.654Z,21.0
2017-04-13T06:25:46.745Z,21.0
2017-04-13T06:26:54.823Z,20.9
2017-04-13T06:28:02.909Z,21.0
2017-04-13T06:29:11.003Z,21.0
2017-04-13T06:30:19.084Z,21.0
2017-04-13T06:31:27.165Z,21.0
2017-04-13T06:32:35.261Z,21.0
2017-04-13T06:33:43.352Z,21.0
2017-04-13T06:34:51.444Z,20.9
2017-04-13T06:35:59.527Z,20.9
2017-04-13T06:37:07.620Z,20.9
2017-04-13T06:38:15.746Z,20.9
2017-04-13T06:39:23.789Z,21.0
2017-04-13T06:40:31.881Z,20.9
2017-04-13T06:41:39.968Z,20.9
2017-04-13T06:42:48.049Z,21.0
2017-04-13T06:43:56.134Z,20.9
2017-04-13T06:45:04.218Z,20.9
2017-04-13T06:46:12.310Z,20.9
2017-04-13T06:47:20.393Z,20.9
2017-04-13T06:48:28.480Z,20.9
2017-04-13T06:49:36.566Z,20.9
2017-04-13T06:50:44.647Z,20.9
2017-04-13T06:51:52.739Z,20.9
2017-04-13T06:53:00.825Z,20.9
2017-04-13T06:54:08.907Z,20.9
2017-04-13T06:55:16.992Z,20.9
2017-04-13T06:56:25.079Z,20.9
2017-04-13T06:57:33.162Z,20.8
2017-04-13T06:58:41.247Z,20.8
2017-04-13T06:59:49.386Z,20.9
2017-04-13T07:00:57.416Z,20.9
2017-04-13T07:02:05.504Z,20.8
2017-04-13T07:03:13.584Z,20.9
2017-04-13T07:04:21.677Z,20.9
2017-04-13T07:05:29.765Z,20.9
2017-04-13T07:06:37.964Z,20.9
2017-04-13T07:07:45.942Z,20.9
2017-04-13T07:08:54.029Z,20.9
2017-04-13T07:10:02.119Z,20.8
2017-04-13T07:11:10.208Z,20.9
2017-04-13T07:12:18.301Z,20.8
2017-04-13T07:13:26.396Z,20.9
2017-04-13T07:14:34.464Z,20.8
2017-04-13T07:15:42.553Z,20.9
2017-04-13T07:16:50.641Z,20.8
2017-04-13T07:17:58.726Z,20.9
2017-04-13T07:19:06.814Z,20.8
2017-04-13T07:20:14.901Z,20.8
2017-04-13T07:21:22.994Z,20.8
2017-04-13T07:22:31.077Z,20.8
2017-04-13T07:23:39.163Z,20.8
2017-04-13T07:24:47.252Z,20.8
2017-04-13T07:25:55.340Z,20.9
2017-04-13T07:27:03.422Z,20.7
2017-04-13T07:28:11.512Z,20.8
2017-04-13T07:29:19.600Z,20.8
2017-04-13T07:30:27.692Z,20.7
2017-04-13T07:31:35.790Z,20.8
2017-04-13T07:32:43.875Z,20.8
2017-04-13T07:33:51.964Z,20.8
2017-04-13T07:35:00.049Z,20.8
2017-04-13T07:36:08.137Z,20.7
2017-04-13T07:37:16.228Z,20.7
2017-04-13T07:38:24.313Z,20.7
2017-04-13T07:39:32.406Z,20.7
2017-04-13T07:40:40.493Z,20.6
2017-04-13T07:41:48.583Z,20.7
2017-04-13T07:42:56.750Z,20.7
2017-04-13T07:44:05.147Z,20.6
2017-04-13T07:45:12.830Z,20.7
2017-04-13T07:46:20.911Z,20.7
2017-04-13T07:47:29.117Z,20.7
2017-04-13T07:48:37.198Z,20.7
2017-04-13T07:49:45.181Z,20.7
2017-04-13T07:50:53.657Z,20.7
2017-04-13T07:52:01.352Z,20.7
2017-04-13T07:53:09.435Z,20.6
2017-04-13T07:54:17.520Z,20.7
2017-04-13T07:55:25.607Z,20.7
2017-04-13T07:56:33.693Z,20.7
2017-04-13T07:57:41.785Z,20.6
2017-04-13T07:58:49.866Z,20.6
2017-04-13T07:59:57.957Z,20.7
2017-04-13T08:01:06.045Z,20.6
2017-04-13T08:02:14.124Z,20.7
2017-04-13T08:03:22.322Z,20.7
2017-04-13T08:04:30.297Z,20.6
2017-04-13T08:05:38.410Z,20.7
2017-04-13T08:06:46.466Z,20.7
2017-04-13T08:07:54.555Z,20.7
2017-04-13T08:09:02.673Z,20.6
2017-04-13T08:10:10.731Z,20.7
2017-04-13T08:11:18.820Z,20.7
2017-04-13T08:12:26.903Z,20.7
2017-04-13T08:13:34.989Z,20.7
2017-04-13T08:14:43.082Z,20.7
2017-04-13T08:15:51.679Z,20.7
2017-04-13T08:16:59.241Z,20.7
2017-04-13T08:18:07.326Z,20.7
2017-04-13T08:19:15.426Z,20.7
2017-04-13T08:20:23.530Z,20.7
2017-04-13T08:21:31.598Z,20.8
2017-04-13T08:22:39.686Z,20.8
2017-04-13T08:23:47.778Z,20.7
2017-04-13T08:24:55.869Z,20.8
2017-04-13T08:26:03.956Z,20.8
2017-04-13T08:27:12.042Z,20.7
2017-04-13T08:28:20.137Z,20.8
2017-04-13T08:29:28.224Z,20.8
2017-04-13T08:30:36.321Z,20.8
2017-04-13T08:31:44.405Z,20.7
2017-04-13T08:32:52.490Z,20.8
2017-04-13T08:34:00.576Z,20.8
2017-04-13T08:35:08.783Z,20.8
2017-04-13T08:36:16.752Z,20.8
2017-04-13T08:37:24.833Z,20.8
2017-04-13T08:38:32.945Z,20.9
2017-04-13T08:39:41.011Z,20.9
2017-04-13T08:40:49.157Z,20.8
2017-04-13T08:41:57.175Z,20.9
2017-04-13T08:43:05.262Z,20.9
2017-04-13T08:44:13.353Z,20.9
2017-04-13T08:45:21.432Z,20.9
2017-04-13T08:46:29.526Z,20.9
2017-04-13T08:47:38.158Z,20.9
2017-04-13T08:48:45.797Z,20.9
2017-04-13T08:49:53.868Z,20.9
2017-04-13T08:51:01.871Z,20.8
2017-04-13T08:52:09.959Z,20.8
2017-04-13T08:53:18.044Z,20.8
2017-04-13T08:54:26.135Z,20.8
2017-04-13T08:55:34.222Z,20.9
2017-04-13T08:56:42.305Z,20.8
2017-04-13T08:57:50.387Z,20.8
2017-04-13T08:58:58.477Z,20.8
2017-04-13T09:00:06.563Z,20.8
2017-04-13T09:01:14.647Z,20.8
2017-04-13T09:02:22.735Z,20.8
2017-04-13T09:03:30.820Z,20.9
2017-04-13T09:04:38.900Z,20.8
2017-04-13T09:05:46.984Z,20.8
2017-04-13T09:06:55.081Z,20.8
2017-04-13T09:08:03.168Z,20.8
2017-04-13T09:09:11.251Z,20.8
2017-04-13T09:10:19.337Z,20.8
2017-04-13T09:11:27.423Z,20.8
2017-04-13T09:12:35.512Z,20.8
2017-04-13T09:13:43.597Z,20.8
2017-04-13T09:14:51.683Z,20.8
2017-04-13T09:15:59.763Z,20.7
2017-04-13T09:17:07.849Z,20.8
2017-04-13T09:18:15.936Z,20.7
2017-04-13T09:19:24.411Z,20.8
2017-04-13T09:20:32.105Z,20.8
2017-04-13T09:21:40.303Z,20.7
2017-04-13T09:22:48.366Z,20.7
2017-04-13T09:23:56.432Z,20.8
2017-04-13T09:25:04.450Z,20.7
2017-04-13T09:26:12.548Z,20.8
2017-04-13T09:27:20.633Z,20.7
2017-04-13T09:28:28.728Z,20.9
2017-04-13T09:29:37.068Z,20.8
2017-04-13T09:30:44.940Z,20.8
2017-04-13T09:31:53.184Z,20.7
2017-04-13T09:33:01.057Z,20.7
2017-04-13T09:34:09.192Z,20.7
2017-04-13T09:35:17.759Z,20.7
2017-04-13T09:36:25.496Z,20.7
2017-04-13T09:37:33.835Z,20.7
2017-04-13T09:38:41.890Z,20.7
2017-04-13T09:39:49.577Z,20.7
2017-04-13T09:40:57.659Z,20.7
2017-04-13T09:42:06.245Z,20.8
2017-04-13T09:43:13.834Z,20.7
2017-04-13T09:44:21.984Z,20.7
2017-04-13T09:45:30.008Z,20.7
2017-04-13T09:46:38.093Z,20.8
2017-04-13T09:47:46.252Z,20.7
2017-04-13T09:48:54.264Z,20.8
2017-04-13T09:50:02.347Z,20.7
2017-04-13T09:51:10.439Z,20.7
2017-04-13T09:52:18.520Z,20.8
2017-04-13T09:53:26.608Z,20.7
2017-04-13T09:54:34.692Z,20.7
2017-04-13T09:55:42.775Z,20.7
2017-04-13T09:56:50.860Z,20.7
2017-04-13T09:57:58.955Z,20.7
2017-04-13T09:59:07.041Z,20.7
2017-04-13T10:00:15.127Z,20.7
2017-04-13T10:01:23.213Z,20.7
2017-04-13T10:02:31.301Z,20.7
2017-04-13T10:03:39.391Z,20.7
2017-04-13T10:04:47.477Z,20.8
2017-04-13T10:05:55.566Z,20.7
2017-04-13T10:07:03.651Z,20.8
2017-04-13T10:08:11.733Z,20.8
2017-04-13T10:09:19.821Z,20.7
2017-04-13T10:10:27.926Z,20.7
2017-04-13T10:11:36.003Z,20.7
2017-04-13T10:12:44.075Z,20.7
2017-04-13T10:13:52.164Z,20.7
2017-04-13T10:15:00.258Z,20.6
2017-04-13T10:16:08.334Z,20.7
2017-04-13T10:17:16.422Z,20.7
2017-04-13T10:18:24.515Z,20.7
2017-04-13T10:19:32.606Z,20.7
2017-04-13T10:20:40.685Z,20.7
2017-04-13T10:21:48.777Z,20.7
2017-04-13T10:22:56.861Z,20.7
2017-04-13T10:24:04.945Z,20.7
2017-04-13T10:25:13.031Z,20.7
2017-04-13T10:26:21.123Z,20.7
2017-04-13T10:27:29.205Z,20.7
2017-04-13T10:28:37.300Z,20.6
2017-04-13T10:29:45.383Z,20.7
2017-04-13T10:30:53.480Z,20.7
2017-04-13T10:32:01.556Z,20.7
2017-04-13T10:33:09.651Z,20.6
2017-04-13T10:34:17.736Z,20.6
2017-04-13T10:35:25.829Z,20.6
2017-04-13T10:36:33.914Z,20.7
2017-04-13T10:37:42.005Z,20.7
2017-04-13T10:38:50.092Z,20.7
2017-04-13T10:39:58.174Z,20.7
2017-04-13T10:41:06.265Z,20.6
2017-04-13T10:42:14.349Z,20.7
2017-04-13T10:43:22.445Z,20.7
2017-04-13T10:44:30.532Z,20.7
2017-04-13T10:45:38.619Z,20.8
2017-04-13T10:46:46.711Z,20.7
2017-04-13T10:47:54.792Z,20.7
2017-04-13T10:49:02.886Z,20.6
2017-04-13T10:50:10.973Z,20.7
2017-04-13T10:51:19.105Z,20.7
2017-04-13T10:52:27.141Z,20.7
2017-04-13T10:53:35.231Z,20.7
2017-04-13T10:54:43.321Z,20.6
2017-04-13T10:55:51.400Z,20.7
2017-04-13T10:56:59.489Z,20.7
2017-04-13T10:58:07.577Z,20.7
2017-04-13T10:59:15.656Z,20.7
2017-04-13T11:00:23.746Z,20.7
2017-04-13T11:01:31.831Z,20.7
2017-04-13T11:02:39.916Z,20.7
2017-04-13T11:03:48.060Z,20.7
2017-04-13T11:04:56.257Z,20.7
2017-04-13T11:06:04.171Z,20.6
2017-04-13T11:07:12.255Z,20.7
2017-04-13T11:08:20.356Z,20.7
2017-04-13T11:09:28.649Z,20.7
2017-04-13T11:10:36.513Z,20.7
2017-04-13T11:11:44.600Z,20.7
2017-04-13T11:12:52.689Z,20.7
2017-04-13T11:14:00.772Z,20.7
2017-04-13T11:15:08.858Z,20.7
2017-04-13T11:16:16.948Z,20.7
2017-04-13T11:17:25.034Z,20.6
2017-04-13T11:18:33.125Z,20.7
2017-04-13T11:19:41.211Z,20.7
2017-04-13T11:20:49.298Z,20.7
2017-04-13T11:21:57.382Z,20.7
2017-04-13T11:23:05.463Z,20.7
2017-04-13T11:24:13.556Z,20.7
2017-04-13T11:25:21.640Z,20.7
2017-04-13T11:26:29.724Z,20.7
2017-04-13T11:27:37.816Z,20.7
2017-04-13T11:28:45.914Z,20.7
2017-04-13T11:29:53.993Z,20.7
2017-04-13T11:31:02.083Z,20.7
2017-04-13T11:32:10.174Z,20.7
2017-04-13T11:33:18.260Z,20.7
2017-04-13T11:34:26.344Z,20.6
2017-04-13T11:35:34.440Z,20.7
2017-04-13T11:36:42.515Z,20.7
2017-04-13T11:37:50.606Z,20.7
2017-04-13T11:38:58.694Z,20.7
2017-04-13T11:40:06.782Z,20.7
2017-04-13T11:41:14.867Z,20.7
2017-04-13T11:42:22.955Z,20.7
2017-04-13T11:43:31.043Z,20.7
2017-04-13T11:44:39.128Z,20.7
2017-04-13T11:45:47.216Z,20.7
2017-04-13T11:46:55.297Z,20.7
2017-04-13T11:48:03.385Z,20.7
2017-04-13T11:49:11.470Z,20.7
2017-04-13T11:50:19.853Z,20.7
2017-04-13T11:51:27.642Z,20.7
2017-04-13T11:52:35.737Z,20.7
2017-04-13T11:53:43.817Z,20.7
2017-04-13T11:54:51.904Z,20.7
2017-04-13T11:55:59.996Z,20.7
2017-04-13T11:57:08.075Z,20.7
2017-04-13T11:58:16.167Z,20.7
2017-04-13T11:59:24.254Z,20.7
2017-04-13T12:00:32.343Z,20.7
2017-04-13T12:01:40.434Z,20.8
2017-04-13T12:02:49.128Z,20.7
2017-04-13T12:03:56.604Z,20.7
2017-04-13T12:05:04.688Z,20.8
2017-04-13T12:06:12.775Z,20.7
2017-04-13T12:07:20.875Z,20.7
2017-04-13T12:08:28.962Z,20.7
2017-04-13T12:09:37.055Z,20.8
2017-04-13T12:10:45.129Z,20.8
2017-04-13T12:11:53.245Z,20.8
2017-04-13T12:13:01.378Z,20.7
2017-04-13T12:14:09.400Z,20.8
2017-04-13T12:15:17.494Z,20.8
2017-04-13T12:16:25.581Z,20.8
2017-04-13T12:17:33.663Z,20.8
2017-04-13T12:18:41.748Z,20.7
2017-04-13T12:19:49.851Z,20.7
2017-04-13T12:20:57.927Z,20.7
2017-04-13T12:22:06.009Z,20.7
2017-04-13T12:23:14.099Z,20.7
2017-04-13T12:24:22.182Z,20.8
2017-04-13T12:25:30.271Z,20.7
2017-04-13T12:26:38.354Z,20.8
2017-04-13T12:27:46.440Z,20.7
2017-04-13T12:28:54.521Z,20.8
2017-04-13T12:30:02.617Z,20.7
2017-04-13T12:31:10.695Z,20.8
2017-04-13T12:32:19.049Z,20.7
2017-04-13T12:33:27.046Z,20.8
2017-04-13T12:34:35.181Z,20.7
2017-04-13T12:35:43.044Z,20.7
2017-04-13T12:36:51.126Z,20.7
2017-04-13T12:37:59.211Z,20.7
2017-04-13T12:39:07.299Z,20.8
2017-04-13T12:40:15.393Z,20.8
2017-04-13T12:41:23.474Z,20.8
2017-04-13T12:42:31.565Z,20.7
2017-04-13T12:43:39.652Z,20.7
2017-04-13T12:44:48.226Z,20.8
2017-04-13T12:45:55.825Z,20.7
2017-04-13T12:47:03.937Z,20.7
2017-04-13T12:48:12.006Z,20.7
2017-04-13T12:49:20.091Z,20.8
2017-04-13T12:50:28.177Z,20.8
2017-04-13T12:51:36.261Z,20.8
2017-04-13T12:52:44.345Z,20.9
2017-04-13T12:53:52.431Z,20.7
2017-04-13T12:55:00.569Z,20.8
2017-04-13T12:56:08.615Z,20.8
2017-04-13T12:57:16.693Z,20.8
2017-04-13T12:58:24.780Z,20.8
2017-04-13T12:59:32.865Z,20.8
2017-04-13T13:00:40.962Z,20.7
2017-04-13T13:01:49.045Z,20.7
2017-04-13T13:02:57.131Z,20.8
2017-04-13T13:04:05.215Z,20.8
2017-04-13T13:05:13.307Z,20.7
2017-04-13T13:06:21.399Z,20.8
2017-04-13T13:07:29.481Z,20.8
2017-04-13T13:08:37.576Z,20.8
2017-04-13T13:09:45.653Z,20.8
2017-04-13T13:10:53.742Z,20.8
2017-04-13T13:12:01.836Z,20.9
2017-04-13T13:13:09.927Z,20.7
2017-04-13T13:14:18.010Z,20.8
2017-04-13T13:15:26.097Z,20.8
2017-04-13T13:16:34.179Z,20.8
2017-04-13T13:17:42.264Z,20.8
2017-04-13T13:18:50.356Z,20.8
2017-04-13T13:19:58.443Z,20.8
2017-04-13T13:21:06.521Z,20.8
2017-04-13T13:22:14.617Z,20.8
2017-04-13T13:23:22.703Z,20.8
2017-04-13T13:24:30.792Z,20.8
2017-04-13T13:25:38.876Z,20.8
2017-04-13T13:26:46.962Z,20.8
2017-04-13T13:27:55.045Z,20.8
2017-04-13T13:29:03.126Z,20.8
2017-04-13T13:30:11.221Z,20.8
2017-04-13T13:31:19.362Z,20.8
2017-04-13T13:32:27.390Z,20.8
2017-04-13T13:33:35.567Z,20.8
2017-04-13T13:34:43.564Z,20.8
2017-04-13T13:35:51.770Z,20.8
2017-04-13T13:36:59.752Z,20.8
2017-04-13T13:38:07.883Z,20.8
2017-04-13T13:39:16.495Z,20.8
2017-04-13T13:40:23.986Z,20.8
2017-04-13T13:41:32.744Z,20.8
2017-04-13T13:42:40.165Z,20.8
2017-04-13T13:43:48.556Z,20.8
2017-04-13T13:44:56.580Z,20.8
2017-04-13T13:46:04.431Z,20.8
2017-04-13T13:47:12.514Z,20.9
2017-04-13T13:48:21.206Z,20.8
2017-04-13T13:49:29.322Z,20.8
2017-04-13T13:50:37.228Z,20.9
2017-04-13T13:51:44.858Z,20.8
2017-04-13T13:52:52.940Z,20.9
2017-04-13T13:54:01.057Z,20.9
2017-04-13T13:55:09.141Z,20.9
2017-04-13T13:56:17.207Z,20.9
2017-04-13T13:57:25.293Z,20.9
2017-04-13T13:58:33.386Z,20.9
2017-04-13T13:59:41.696Z,20.9
2017-04-13T14:00:49.892Z,20.9
2017-04-13T14:01:57.647Z,20.9
2017-04-13T14:03:05.738Z,20.9
2017-04-13T14:04:13.909Z,20.8
2017-04-13T14:05:22.435Z,20.9
2017-04-13T14:06:29.994Z,20.9
2017-04-13T14:07:38.086Z,20.9
2017-04-13T14:08:46.809Z,20.9
2017-04-13T14:09:54.253Z,20.9
2017-04-13T14:11:02.390Z,20.9
2017-04-13T14:12:10.431Z,20.9
2017-04-13T14:13:18.517Z,20.9
2017-04-13T14:14:26.603Z,20.9
2017-04-13T14:15:34.684Z,20.9
2017-04-13T14:16:42.767Z,20.9
2017-04-13T14:17:50.855Z,20.9
2017-04-13T14:18:58.970Z,20.9
2017-04-13T14:20:07.256Z,21.0
2017-04-13T14:21:15.341Z,20.9
2017-04-13T14:22:23.495Z,20.9
2017-04-13T14:23:31.357Z,20.9
2017-04-13T14:24:39.608Z,20.9
2017-04-13T14:25:47.683Z,20.9
2017-04-13T14:26:55.972Z,20.9
2017-04-13T14:28:03.806Z,20.9
2017-04-13T14:29:11.995Z,20.9
2017-04-13T14:30:19.993Z,20.9
2017-04-13T14:31:28.379Z,20.9
2017-04-13T14:32:36.019Z,20.9
2017-04-13T14:33:44.553Z,20.9
2017-04-13T14:34:52.216Z,20.9
2017-04-13T14:36:00.487Z,20.9
2017-04-13T14:37:08.338Z,20.9
2017-04-13T14:38:16.420Z,20.9
2017-04-13T14:39:24.505Z,20.9
2017-04-13T14:40:33.014Z,20.9
2017-04-13T14:41:40.692Z,20.9
2017-04-13T14:42:48.767Z,20.9
2017-04-13T14:43:56.896Z,20.9
2017-04-13T14:45:04.969Z,20.9
2017-04-13T14:46:13.499Z,20.9
2017-04-13T14:47:21.130Z,20.9
2017-04-13T14:48:29.218Z,20.9
2017-04-13T14:49:37.882Z,20.9
2017-04-13T14:50:45.394Z,21.0
2017-04-13T14:51:53.472Z,20.9
2017-04-13T14:53:02.132Z,20.9
2017-04-13T14:54:09.645Z,20.9
2017-04-13T14:55:17.731Z,20.9
2017-04-13T14:56:25.827Z,20.9
2017-04-13T14:57:33.914Z,20.9
2017-04-13T14:58:42.004Z,20.9
2017-04-13T14:59:50.085Z,20.9
2017-04-13T15:00:58.180Z,20.9
2017-04-13T15:02:06.268Z,20.9
2017-04-13T15:03:14.349Z,20.9
2017-04-13T15:04:22.436Z,20.9
2017-04-13T15:05:30.703Z,20.9
2017-04-13T15:06:38.601Z,20.9